Essig, Minnesota
Current Conditions -  °F | °C
As of 9:54 AM on Wednesday 28 Jan 2015 (Local Time) from KULM Reporting Station
Haze Haze  
Wind Chill: 20°   Ceiling: 500
Heat Index: 30°   Visibility: 2.5mi
Dew Point: 30°   Wind: 14mph
Humidity: 100%   Direction: 150°SSE
Pressure: 29.88"   Gusts: NA
Location:  44.32°N, 94.6°W
Report Text: KULM 281554Z AUTO 15012KT 2 1/2SM BR OVC005 M01/M01 A2988 RMK AO2
Loading
Personal Weather Stations






























Interactive Weather Map New forecast layout! Learn more

10-Day Weather Forecast

Advertisements
Track Severe Weather on mobile